Time;durP1;ratioP1;P1;durP2;ratioP2;P2;SDS_P1;SDS_P2;PMS_P1;PMS_P2;Temp;Humidity;BMP_temperature;BMP_pressure;BME280_temperature;BME280_humidity;BME280_pressure;Samples;Min_cycle;Max_cycle;Signal;HPM_P1;HPM_P2
2022/06/06 00:00:24;;;;;;;3.47;3.17;;;;;;;;;;7372950;19;20148;-85
2022/06/06 00:02:50;;;;;;;4.60;3.20;;;;;;;;;;7371987;19;20145;-88
2022/06/06 00:05:17;;;;;;;5.53;3.30;;;;;;;;;;7377954;19;20344;-87
2022/06/06 00:07:43;;;;;;;4.37;3.30;;;;;;;;;;7373838;19;20128;-86
2022/06/06 00:10:10;;;;;;;7.30;3.50;;;;;;;;;;7374984;19;20146;-85
2022/06/06 00:12:36;;;;;;;4.03;3.63;;;;;;;;;;7379390;19;20152;-85
2022/06/06 00:15:02;;;;;;;5.83;3.43;;;;;;;;;;7372604;19;20156;-83
2022/06/06 00:17:28;;;;;;;5.50;3.53;;;;;;;;;;7377518;19;20137;-86
2022/06/06 00:19:54;;;;;;;10.30;3.90;;;;;;;;;;7376517;19;20957;-85
2022/06/06 00:22:20;;;;;;;5.57;3.20;;;;;;;;;;7375814;19;20659;-84
2022/06/06 00:24:47;;;;;;;7.03;3.20;;;;;;;;;;7374962;19;20125;-85
2022/06/06 00:27:13;;;;;;;3.97;3.57;;;;;;;;;;7385443;19;20721;-88
2022/06/06 00:29:39;;;;;;;4.80;3.20;;;;;;;;;;7419710;19;20134;-87
2022/06/06 00:34:52;;;;;;;5.37;3.40;;;;;;;;;;7413912;19;20156;-87
2022/06/06 00:37:21;;;;;;;5.80;3.27;;;;;;;;;;7411604;19;20167;-84
2022/06/06 00:39:47;;;;;;;6.97;3.50;;;;;;;;;;7381104;19;20129;-80
2022/06/06 00:42:19;;;;;;;4.93;3.37;;;;;;;;;;7377817;19;20514;-82
2022/06/06 00:44:45;;;;;;;4.73;3.20;;;;;;;;;;7379008;19;20136;-80
2022/06/06 00:47:14;;;;;;;5.63;3.40;;;;;;;;;;7375352;19;20160;-80
2022/06/06 00:49:49;;;;;;;4.70;3.30;;;;;;;;;;7376846;19;20170;-85
2022/06/06 00:52:18;;;;;;;4.40;3.27;;;;;;;;;;7382515;19;20860;-80
2022/06/06 00:54:45;;;;;;;9.00;5.23;;;;;;;;;;7384198;19;20366;-86
2022/06/06 00:57:14;;;;;;;6.13;3.07;;;;;;;;;;7384762;19;20152;-82
2022/06/06 00:59:41;;;;;;;3.43;3.13;;;;;;;;;;7378885;19;20674;-81
2022/06/06 01:02:09;;;;;;;4.00;3.10;;;;;;;;;;7371884;19;20486;-80
2022/06/06 01:04:35;;;;;;;3.53;2.90;;;;;;;;;;7386538;19;20129;-84
2022/06/06 01:07:02;;;;;;;3.27;2.90;;;;;;;;;;7378891;19;20172;-85
2022/06/06 01:09:29;;;;;;;5.20;3.13;;;;;;;;;;7383368;19;20153;-85
2022/06/06 01:11:59;;;;;;;3.53;2.80;;;;;;;;;;7383112;19;20152;-83
2022/06/06 01:14:28;;;;;;;3.37;2.60;;;;;;;;;;7384683;19;20761;-80
2022/06/06 01:17:05;;;;;;;3.80;3.00;;;;;;;;;;7376375;19;20243;-87
2022/06/06 01:19:37;;;;;;;5.13;3.10;;;;;;;;;;7381641;19;20227;-85
2022/06/06 01:22:03;;;;;;;5.90;2.97;;;;;;;;;;7374782;19;20547;-82
2022/06/06 01:24:37;;;;;;;3.27;2.93;;;;;;;;;;7381993;19;20125;-84
2022/06/06 01:30:01;;;;;;;3.27;2.47;;;;;;;;;;7390827;19;20155;-81
2022/06/06 01:32:28;;;;;;;3.00;2.43;;;;;;;;;;7387962;19;20147;-81
2022/06/06 01:34:55;;;;;;;3.03;2.50;;;;;;;;;;7385675;19;20125;-81
2022/06/06 01:37:23;;;;;;;4.07;2.63;;;;;;;;;;7381643;19;20189;-79
2022/06/06 01:39:49;;;;;;;3.80;2.57;;;;;;;;;;7380451;19;20156;-80
2022/06/06 01:42:36;;;;;;;3.23;2.70;;;;;;;;;;7390693;19;20145;-81
2022/06/06 01:45:06;;;;;;;5.20;3.30;;;;;;;;;;7378816;19;20223;-81
2022/06/06 01:47:37;;;;;;;4.13;3.73;;;;;;;;;;7383369;19;20669;-83
2022/06/06 01:50:04;;;;;;;5.27;3.67;;;;;;;;;;7383461;19;20630;-80
2022/06/06 01:52:30;;;;;;;5.80;3.80;;;;;;;;;;7387741;19;20873;-80
2022/06/06 01:54:57;;;;;;;4.60;3.80;;;;;;;;;;7386142;19;20133;-81
2022/06/06 01:57:24;;;;;;;5.23;4.10;;;;;;;;;;7386186;19;20140;-79
2022/06/06 01:59:51;;;;;;;4.73;3.57;;;;;;;;;;7388130;19;20149;-80
2022/06/06 02:02:17;;;;;;;4.60;3.70;;;;;;;;;;7382279;19;20155;-80
2022/06/06 02:04:43;;;;;;;9.50;4.57;;;;;;;;;;7389741;19;20129;-81
2022/06/06 02:07:09;;;;;;;7.47;4.90;;;;;;;;;;7375719;19;20176;-79
2022/06/06 02:09:36;;;;;;;10.87;4.53;;;;;;;;;;7377011;19;20149;-79
2022/06/06 02:12:02;;;;;;;5.33;4.10;;;;;;;;;;7378328;19;20224;-80
2022/06/06 02:14:29;;;;;;;10.13;4.67;;;;;;;;;;7387170;19;20129;-80
2022/06/06 02:16:55;;;;;;;6.17;3.73;;;;;;;;;;7390226;19;20202;-80
2022/06/06 02:19:21;;;;;;;22.87;4.83;;;;;;;;;;7401964;19;20129;-80
2022/06/06 02:21:47;;;;;;;5.43;4.93;;;;;;;;;;7405040;19;20162;-80
2022/06/06 02:24:13;;;;;;;7.33;4.50;;;;;;;;;;7403744;19;20580;-81
2022/06/06 02:26:39;;;;;;;5.00;4.27;;;;;;;;;;7389398;19;20201;-80
2022/06/06 02:29:05;;;;;;;4.87;3.93;;;;;;;;;;7383546;19;20147;-80
2022/06/06 02:31:37;;;;;;;6.70;4.57;;;;;;;;;;7376510;19;20227;-80
2022/06/06 02:34:04;;;;;;;5.37;4.30;;;;;;;;;;7391620;19;20140;-81
2022/06/06 02:36:30;;;;;;;7.03;4.23;;;;;;;;;;7393452;19;20176;-81
2022/06/06 02:38:56;;;;;;;7.37;4.70;;;;;;;;;;7407209;19;20153;-80
2022/06/06 02:41:25;;;;;;;7.50;4.47;;;;;;;;;;7400464;19;20193;-82
2022/06/06 02:43:52;;;;;;;5.00;4.13;;;;;;;;;;7386119;19;20228;-80
2022/06/06 02:46:18;;;;;;;5.10;4.27;;;;;;;;;;7377253;19;20180;-81
2022/06/06 02:48:44;;;;;;;7.40;4.37;;;;;;;;;;7380564;19;20164;-83
2022/06/06 02:51:10;;;;;;;6.33;4.17;;;;;;;;;;7377123;19;20121;-80
2022/06/06 02:53:36;;;;;;;4.40;3.60;;;;;;;;;;7381879;19;20132;-82
2022/06/06 02:56:03;;;;;;;6.27;4.40;;;;;;;;;;7371172;19;20216;-83
2022/06/06 02:58:29;;;;;;;5.87;4.50;;;;;;;;;;7380714;19;20137;-83
2022/06/06 03:01:01;;;;;;;6.37;4.63;;;;;;;;;;7378193;19;20562;-82
2022/06/06 03:03:28;;;;;;;8.33;4.07;;;;;;;;;;7374357;19;20153;-82
2022/06/06 03:06:01;;;;;;;4.97;4.10;;;;;;;;;;7376281;19;20658;-80
2022/06/06 03:08:40;;;;;;;10.00;4.30;;;;;;;;;;7387430;19;20212;-80
2022/06/06 03:11:19;;;;;;;5.60;4.20;;;;;;;;;;7385979;19;20515;-80
2022/06/06 03:13:45;;;;;;;5.87;4.47;;;;;;;;;;7388804;19;20641;-80
2022/06/06 03:22:18;;;;;;;4.57;4.17;;;;;;;;;;7393410;19;20132;-82
2022/06/06 03:24:54;;;;;;;6.47;4.27;;;;;;;;;;7388606;19;20573;-80
2022/06/06 03:27:46;;;;;;;7.70;5.20;;;;;;;;;;7383974;19;20374;-83
2022/06/06 03:30:25;;;;;;;10.20;4.30;;;;;;;;;;7377144;19;20153;-79
2022/06/06 03:33:09;;;;;;;4.50;4.03;;;;;;;;;;7379094;19;20226;-84
2022/06/06 03:35:46;;;;;;;5.83;4.47;;;;;;;;;;7380701;19;20152;-79
2022/06/06 03:38:12;;;;;;;7.50;4.37;;;;;;;;;;7387520;19;20137;-81
2022/06/06 03:40:56;;;;;;;6.67;4.17;;;;;;;;;;7384562;19;20165;-80
2022/06/06 03:43:46;;;;;;;6.43;4.50;;;;;;;;;;7385452;19;20150;-79
2022/06/06 03:46:44;;;;;;;4.53;4.13;;;;;;;;;;7380434;19;20208;-79
2022/06/06 03:49:11;;;;;;;9.77;5.97;;;;;;;;;;7383822;19;20157;-80
2022/06/06 03:51:37;;;;;;;6.30;5.67;;;;;;;;;;7386453;19;20200;-80
2022/06/06 03:54:06;;;;;;;8.57;5.93;;;;;;;;;;7386735;19;20164;-80
2022/06/06 03:56:35;;;;;;;6.80;4.83;;;;;;;;;;7383811;19;20193;-80
2022/06/06 03:59:01;;;;;;;5.90;4.13;;;;;;;;;;7389256;19;20133;-84
2022/06/06 04:01:27;;;;;;;8.60;4.80;;;;;;;;;;7388149;19;20135;-80
2022/06/06 04:03:53;;;;;;;5.87;4.90;;;;;;;;;;7389135;19;20121;-81
2022/06/06 04:06:20;;;;;;;5.47;4.17;;;;;;;;;;7386768;19;20149;-81
2022/06/06 04:08:46;;;;;;;6.17;4.20;;;;;;;;;;7386995;19;20161;-80
2022/06/06 04:11:12;;;;;;;6.40;4.50;;;;;;;;;;7389076;19;20167;-83
2022/06/06 04:13:57;;;;;;;6.30;4.80;;;;;;;;;;7388523;19;20137;-83
2022/06/06 04:16:39;;;;;;;5.53;4.90;;;;;;;;;;7383262;19;20179;-83
2022/06/06 04:19:17;;;;;;;7.53;4.70;;;;;;;;;;7385154;19;20144;-82
2022/06/06 04:21:58;;;;;;;5.07;4.17;;;;;;;;;;7383841;19;20133;-83
2022/06/06 04:24:30;;;;;;;9.37;4.10;;;;;;;;;;7386648;19;20221;-84
2022/06/06 04:27:25;;;;;;;6.87;4.57;;;;;;;;;;7384178;19;20181;-84
2022/06/06 04:30:14;;;;;;;5.33;4.83;;;;;;;;;;7382577;19;20519;-83
2022/06/06 04:32:53;;;;;;;5.97;4.33;;;;;;;;;;7383030;19;20144;-83
2022/06/06 04:35:38;;;;;;;6.53;4.20;;;;;;;;;;7382766;19;20180;-81
2022/06/06 04:38:23;;;;;;;7.27;5.63;;;;;;;;;;7381382;19;20160;-83
2022/06/06 04:40:53;;;;;;;5.37;4.87;;;;;;;;;;7385929;19;20132;-82
2022/06/06 04:43:19;;;;;;;5.27;4.77;;;;;;;;;;7381496;19;20131;-83
2022/06/06 04:46:04;;;;;;;7.20;4.90;;;;;;;;;;7383492;19;20161;-81
2022/06/06 04:48:31;;;;;;;5.70;4.90;;;;;;;;;;7383810;19;20137;-83
2022/06/06 04:50:58;;;;;;;7.93;5.30;;;;;;;;;;7381462;19;20583;-80
2022/06/06 04:53:25;;;;;;;6.20;5.37;;;;;;;;;;7384123;19;20525;-82
2022/06/06 04:55:51;;;;;;;6.43;4.53;;;;;;;;;;7378491;19;20161;-83
2022/06/06 04:58:18;;;;;;;7.03;5.00;;;;;;;;;;7384678;19;20145;-83
2022/06/06 05:00:45;;;;;;;6.10;4.87;;;;;;;;;;7386896;19;20194;-80
2022/06/06 05:03:13;;;;;;;8.93;4.60;;;;;;;;;;7391315;19;20133;-82
2022/06/06 05:05:42;;;;;;;5.38;4.63;;;;;;;;;;7394208;19;20149;-82
2022/06/06 05:08:23;;;;;;;6.35;5.28;;;;;;;;;;7392588;19;20176;-82
2022/06/06 05:10:57;;;;;;;8.65;4.97;;;;;;;;;;7390777;19;20188;-83
2022/06/06 05:13:26;;;;;;;5.85;4.65;;;;;;;;;;7390068;19;20156;-81
2022/06/06 05:15:55;;;;;;;6.63;5.28;;;;;;;;;;7396732;19;20160;-79
2022/06/06 05:18:21;;;;;;;5.20;4.60;;;;;;;;;;7395755;19;20463;-80
2022/06/06 05:20:50;;;;;;;7.32;4.45;;;;;;;;;;7388132;19;20160;-81
2022/06/06 05:23:35;;;;;;;5.13;4.38;;;;;;;;;;7422005;19;20121;-81
2022/06/06 05:26:13;;;;;;;5.18;4.78;;;;;;;;;;7420451;19;20153;-80
2022/06/06 05:28:39;;;;;;;7.38;5.00;;;;;;;;;;7423180;19;20141;-80
2022/06/06 05:31:05;;;;;;;7.40;4.85;;;;;;;;;;7425791;19;20147;-80
2022/06/06 05:33:42;;;;;;;5.00;4.57;;;;;;;;;;7390026;19;20594;-79
2022/06/06 05:36:27;;;;;;;5.90;4.50;;;;;;;;;;7383175;19;20186;-78
2022/06/06 05:39:11;;;;;;;7.80;5.18;;;;;;;;;;7388409;19;20151;-79
2022/06/06 05:41:37;;;;;;;5.95;5.32;;;;;;;;;;7387781;19;20133;-78
2022/06/06 05:44:12;;;;;;;5.32;4.38;;;;;;;;;;7390055;19;20529;-79
2022/06/06 05:46:38;;;;;;;6.78;4.60;;;;;;;;;;7385646;19;20176;-79
2022/06/06 05:49:22;;;;;;;6.40;4.72;;;;;;;;;;7387504;19;20153;-79
2022/06/06 05:51:48;;;;;;;5.40;4.82;;;;;;;;;;7386737;19;20162;-79
2022/06/06 05:54:22;;;;;;;5.97;4.68;;;;;;;;;;7391573;19;20152;-80
2022/06/06 05:56:56;;;;;;;6.68;4.55;;;;;;;;;;7387561;19;20442;-79
2022/06/06 05:59:25;;;;;;;6.63;5.10;;;;;;;;;;7386898;19;20151;-80
2022/06/06 06:01:55;;;;;;;7.75;4.90;;;;;;;;;;7387540;19;20140;-81
2022/06/06 06:04:32;;;;;;;9.48;4.80;;;;;;;;;;7386668;19;20141;-82
2022/06/06 06:07:21;;;;;;;5.35;4.80;;;;;;;;;;7382082;19;20389;-80
2022/06/06 06:10:06;;;;;;;6.63;5.20;;;;;;;;;;7385057;19;20140;-80
2022/06/06 06:12:50;;;;;;;5.30;4.70;;;;;;;;;;7388205;19;20525;-81
2022/06/06 06:15:22;;;;;;;6.30;5.65;;;;;;;;;;7385645;19;20176;-81
2022/06/06 06:17:50;;;;;;;6.57;4.60;;;;;;;;;;7391492;19;20136;-80
2022/06/06 06:20:18;;;;;;;8.38;4.68;;;;;;;;;;7387683;19;20149;-80
2022/06/06 06:22:52;;;;;;;6.95;5.30;;;;;;;;;;7389807;19;20160;-80
2022/06/06 06:25:22;;;;;;;6.60;5.72;;;;;;;;;;7378307;19;20298;-79
2022/06/06 06:27:48;;;;;;;6.97;5.28;;;;;;;;;;7387964;19;20891;-80
2022/06/06 06:30:14;;;;;;;5.53;4.78;;;;;;;;;;7382127;19;20137;-81
2022/06/06 06:32:48;;;;;;;6.25;5.28;;;;;;;;;;7394243;19;20160;-78
2022/06/06 06:35:15;;;;;;;5.95;5.35;;;;;;;;;;7386292;19;20157;-81
2022/06/06 06:38:00;;;;;;;5.38;4.80;;;;;;;;;;7386989;19;20224;-80
2022/06/06 06:40:49;;;;;;;5.32;4.80;;;;;;;;;;7389171;19;20176;-79
2022/06/06 06:43:28;;;;;;;5.07;4.63;;;;;;;;;;7390387;19;20172;-80
2022/06/06 06:46:00;;;;;;;5.00;4.50;;;;;;;;;;7390695;19;20200;-80
2022/06/06 06:48:32;;;;;;;5.03;3.97;;;;;;;;;;7388843;19;20149;-81
2022/06/06 06:51:16;;;;;;;5.78;5.20;;;;;;;;;;7392422;19;20204;-79
2022/06/06 06:54:01;;;;;;;5.10;4.60;;;;;;;;;;7392324;19;20559;-79
2022/06/06 06:56:39;;;;;;;4.57;4.20;;;;;;;;;;7392057;19;20157;-81
2022/06/06 06:59:20;;;;;;;5.40;4.88;;;;;;;;;;7392953;19;20156;-80
2022/06/06 07:10:36;;;;;;;5.30;4.85;;;;;;;;;;7391929;19;20137;-80
2022/06/06 07:13:14;;;;;;;7.13;4.60;;;;;;;;;;7393379;19;20208;-80
2022/06/06 07:15:43;;;;;;;4.85;4.32;;;;;;;;;;7391894;19;20171;-82
2022/06/06 07:18:11;;;;;;;6.00;4.97;;;;;;;;;;7389117;19;20153;-82
2022/06/06 07:20:39;;;;;;;5.45;4.90;;;;;;;;;;7389969;19;20512;-79
2022/06/06 07:23:08;;;;;;;6.35;4.45;;;;;;;;;;7389588;19;20160;-79
2022/06/06 07:25:39;;;;;;;5.15;4.32;;;;;;;;;;7390536;19;20176;-79
2022/06/06 07:28:06;;;;;;;5.00;4.47;;;;;;;;;;7389828;19;20657;-79
2022/06/06 07:30:33;;;;;;;7.10;4.93;;;;;;;;;;7391561;19;20180;-79
2022/06/06 07:33:05;;;;;;;8.60;4.18;;;;;;;;;;7391612;19;20132;-79
2022/06/06 07:35:49;;;;;;;4.97;4.13;;;;;;;;;;7391545;19;20185;-79
2022/06/06 07:38:25;;;;;;;8.30;4.72;;;;;;;;;;7390051;19;20155;-79
2022/06/06 07:41:17;;;;;;;6.97;4.72;;;;;;;;;;7389690;19;20148;-79
2022/06/06 07:44:02;;;;;;;5.40;4.90;;;;;;;;;;7390519;19;20149;-78
2022/06/06 07:46:41;;;;;;;5.45;4.68;;;;;;;;;;7389213;19;20200;-79
2022/06/06 07:49:18;;;;;;;4.68;4.28;;;;;;;;;;7387916;19;20163;-79
2022/06/06 07:51:44;;;;;;;6.80;4.75;;;;;;;;;;7391131;19;20144;-78
2022/06/06 07:54:15;;;;;;;4.85;4.30;;;;;;;;;;7391166;19;20157;-79
2022/06/06 07:56:44;;;;;;;5.70;4.68;;;;;;;;;;7391225;19;20165;-81
2022/06/06 07:59:22;;;;;;;4.47;4.07;;;;;;;;;;7392115;19;20128;-80
2022/06/06 08:02:03;;;;;;;5.32;4.00;;;;;;;;;;7381225;19;20432;-80
2022/06/06 08:04:55;;;;;;;5.97;4.50;;;;;;;;;;7383058;19;20157;-79
2022/06/06 08:07:28;;;;;;;4.40;4.00;;;;;;;;;;7366733;19;20191;-81
2022/06/06 08:10:03;;;;;;;8.23;4.32;;;;;;;;;;7384970;19;20129;-79
2022/06/06 08:12:29;;;;;;;6.57;4.43;;;;;;;;;;7378716;19;20148;-80
2022/06/06 08:14:57;;;;;;;7.40;4.70;;;;;;;;;;7385351;19;20257;-80
2022/06/06 08:17:42;;;;;;;5.20;4.45;;;;;;;;;;7388154;19;20156;-80
2022/06/06 08:20:13;;;;;;;6.10;4.68;;;;;;;;;;7382072;19;20215;-82
2022/06/06 08:22:42;;;;;;;6.65;4.18;;;;;;;;;;7381327;19;20158;-80
2022/06/06 08:25:11;;;;;;;4.95;4.50;;;;;;;;;;7389944;19;20133;-81
2022/06/06 08:27:38;;;;;;;6.55;4.55;;;;;;;;;;7387926;19;20145;-82
2022/06/06 08:30:04;;;;;;;4.95;4.45;;;;;;;;;;7385498;19;20121;-82
2022/06/06 08:32:30;;;;;;;5.68;4.38;;;;;;;;;;7389839;19;20615;-82
2022/06/06 08:34:56;;;;;;;6.72;4.68;;;;;;;;;;7388751;19;20136;-82
2022/06/06 08:37:36;;;;;;;7.55;4.50;;;;;;;;;;7391689;19;20153;-83
2022/06/06 08:40:11;;;;;;;15.90;4.90;;;;;;;;;;7393317;19;20399;-82
2022/06/06 08:42:56;;;;;;;4.40;4.00;;;;;;;;;;7393054;19;20177;-82
2022/06/06 08:45:33;;;;;;;6.80;4.30;;;;;;;;;;7387061;19;20183;-83
2022/06/06 08:48:02;;;;;;;5.75;4.10;;;;;;;;;;7389785;19;20594;-83
2022/06/06 08:50:48;;;;;;;6.32;4.25;;;;;;;;;;7390246;19;20629;-81
2022/06/06 08:53:16;;;;;;;5.57;3.95;;;;;;;;;;7397273;19;20136;-80
2022/06/06 08:56:01;;;;;;;5.20;3.97;;;;;;;;;;7393990;19;20176;-81
2022/06/06 08:58:42;;;;;;;4.60;4.20;;;;;;;;;;7393325;19;20133;-81
2022/06/06 09:01:26;;;;;;;5.22;4.65;;;;;;;;;;7389118;19;20596;-81
2022/06/06 09:04:16;;;;;;;5.35;4.60;;;;;;;;;;7394340;19;20559;-81
2022/06/06 09:06:54;;;;;;;7.00;4.40;;;;;;;;;;7389362;19;20188;-82
2022/06/06 09:09:35;;;;;;;6.60;4.35;;;;;;;;;;7397650;19;20187;-80
2022/06/06 09:12:10;;;;;;;4.43;4.03;;;;;;;;;;7393814;19;20137;-78
2022/06/06 09:14:59;;;;;;;4.35;4.05;;;;;;;;;;7397904;19;20177;-81
2022/06/06 09:17:37;;;;;;;5.30;4.18;;;;;;;;;;7395545;19;20140;-79
2022/06/06 09:20:22;;;;;;;6.53;4.55;;;;;;;;;;7394330;19;20125;-79
2022/06/06 09:23:07;;;;;;;6.38;4.45;;;;;;;;;;7384342;19;20136;-80
2022/06/06 09:25:58;;;;;;;6.32;4.20;;;;;;;;;;7398966;19;20165;-80
2022/06/06 09:28:44;;;;;;;6.53;4.75;;;;;;;;;;7393817;19;20455;-80
2022/06/06 09:31:30;;;;;;;4.20;3.80;;;;;;;;;;7372287;19;20169;-81
2022/06/06 09:34:03;;;;;;;5.10;4.30;;;;;;;;;;7383040;19;22488;-80
2022/06/06 09:36:55;;;;;;;4.25;3.85;;;;;;;;;;7390915;19;20156;-80
2022/06/06 09:39:32;;;;;;;6.15;4.07;;;;;;;;;;7389793;19;20182;-79
2022/06/06 09:42:03;;;;;;;4.80;3.97;;;;;;;;;;7387510;19;20894;-81
2022/06/06 09:44:48;;;;;;;5.05;3.60;;;;;;;;;;7381658;19;20141;-80
2022/06/06 09:47:34;;;;;;;4.15;3.72;;;;;;;;;;7385541;19;20153;-80
2022/06/06 09:50:20;;;;;;;4.47;4.07;;;;;;;;;;7374750;19;20216;-79
2022/06/06 09:52:55;;;;;;;4.28;3.80;;;;;;;;;;7382098;19;20152;-79
2022/06/06 10:01:43;;;;;;;5.78;3.72;;;;;;;;;;7372301;19;20144;-79
2022/06/06 10:04:32;;;;;;;4.10;3.65;;;;;;;;;;7387104;19;20133;-79
2022/06/06 10:07:23;;;;;;;4.30;3.90;;;;;;;;;;7381417;19;20225;-80
2022/06/06 10:10:08;;;;;;;3.72;3.30;;;;;;;;;;7381692;19;20475;-80
2022/06/06 10:12:49;;;;;;;5.15;3.75;;;;;;;;;;7382954;19;20159;-80
2022/06/06 10:15:34;;;;;;;4.28;3.58;;;;;;;;;;7376525;19;20140;-80
2022/06/06 10:18:09;;;;;;;5.35;3.70;;;;;;;;;;7380508;19;20129;-80
2022/06/06 10:20:45;;;;;;;4.32;3.40;;;;;;;;;;7386199;19;20124;-79
2022/06/06 10:23:21;;;;;;;4.20;3.63;;;;;;;;;;7384181;19;20177;-79
2022/06/06 10:26:05;;;;;;;4.60;2.92;;;;;;;;;;7387567;19;20653;-80
2022/06/06 10:28:31;;;;;;;3.40;2.80;;;;;;;;;;7387092;19;21378;-80
2022/06/06 10:31:09;;;;;;;4.25;3.30;;;;;;;;;;7396416;19;20607;-80
2022/06/06 10:33:38;;;;;;;3.50;3.05;;;;;;;;;;7384705;19;20160;-80
2022/06/06 10:36:16;;;;;;;4.80;3.40;;;;;;;;;;7380081;19;20149;-80
2022/06/06 10:39:01;;;;;;;5.53;3.50;;;;;;;;;;7391757;19;20127;-80
2022/06/06 10:41:39;;;;;;;4.45;3.30;;;;;;;;;;7382995;19;20212;-80
2022/06/06 10:44:24;;;;;;;4.07;3.47;;;;;;;;;;7387495;19;20149;-80
2022/06/06 10:47:09;;;;;;;7.05;3.47;;;;;;;;;;7384853;19;20244;-79
2022/06/06 10:49:53;;;;;;;4.32;3.65;;;;;;;;;;7380017;19;20133;-79
2022/06/06 10:52:58;;;;;;;4.57;3.65;;;;;;;;;;7384098;19;20124;-81
2022/06/06 10:55:24;;;;;;;4.30;3.80;;;;;;;;;;7383939;19;20176;-78
2022/06/06 10:58:08;;;;;;;6.22;4.10;;;;;;;;;;7368015;19;20121;-81
2022/06/06 11:00:46;;;;;;;4.72;3.83;;;;;;;;;;7384317;19;20256;-78
2022/06/06 11:03:33;;;;;;;5.13;3.67;;;;;;;;;;7375921;19;20629;-79
2022/06/06 11:06:15;;;;;;;3.97;3.35;;;;;;;;;;7384901;19;20626;-79
2022/06/06 11:09:00;;;;;;;4.53;3.60;;;;;;;;;;7383291;19;20484;-79
2022/06/06 11:11:41;;;;;;;3.60;3.30;;;;;;;;;;7388218;19;20152;-79
2022/06/06 11:14:17;;;;;;;3.00;2.67;;;;;;;;;;7385442;19;20591;-78
2022/06/06 11:17:02;;;;;;;3.40;3.10;;;;;;;;;;7383930;19;20201;-79
2022/06/06 11:19:37;;;;;;;4.40;3.00;;;;;;;;;;7390799;19;20125;-78
2022/06/06 11:22:12;;;;;;;3.38;3.10;;;;;;;;;;7395433;19;20164;-80
2022/06/06 11:24:47;;;;;;;4.68;3.10;;;;;;;;;;7384525;19;20201;-79
2022/06/06 11:27:25;;;;;;;4.97;3.20;;;;;;;;;;7383368;19;20453;-79
2022/06/06 11:29:58;;;;;;;6.35;3.08;;;;;;;;;;7385354;19;20152;-79
2022/06/06 11:32:27;;;;;;;5.07;3.30;;;;;;;;;;7384544;19;20121;-79
2022/06/06 11:35:04;;;;;;;4.20;3.13;;;;;;;;;;7378087;19;20429;-80
2022/06/06 11:37:49;;;;;;;4.68;3.17;;;;;;;;;;7375137;19;20148;-80
2022/06/06 11:40:33;;;;;;;5.00;3.50;;;;;;;;;;7411667;19;20177;-79
2022/06/06 11:43:17;;;;;;;4.03;2.80;;;;;;;;;;7420760;19;20261;-79
2022/06/06 11:46:01;;;;;;;3.55;3.10;;;;;;;;;;7413981;19;20145;-79
2022/06/06 11:48:27;;;;;;;5.35;3.38;;;;;;;;;;7401659;19;20152;-79
2022/06/06 11:51:24;;;;;;;4.85;3.75;;;;;;;;;;7387062;19;20591;-79
2022/06/06 11:54:08;;;;;;;6.60;3.55;;;;;;;;;;7382673;19;20145;-79
2022/06/06 11:56:39;;;;;;;3.22;3.03;;;;;;;;;;7376996;19;21127;-79
2022/06/06 11:59:18;;;;;;;4.03;3.22;;;;;;;;;;7385569;19;20149;-80
2022/06/06 12:01:47;;;;;;;3.22;2.80;;;;;;;;;;7389791;19;20129;-79
2022/06/06 12:04:31;;;;;;;4.10;3.05;;;;;;;;;;7386422;19;20160;-81
2022/06/06 12:07:33;;;;;;;4.40;2.70;;;;;;;;;;7381170;19;20176;-79
2022/06/06 12:10:05;;;;;;;3.25;2.90;;;;;;;;;;7380873;19;20168;-79
2022/06/06 12:12:49;;;;;;;3.72;3.42;;;;;;;;;;7385344;19;20204;-79
2022/06/06 12:15:27;;;;;;;4.63;3.30;;;;;;;;;;7388232;19;20137;-79
2022/06/06 12:17:53;;;;;;;3.25;2.88;;;;;;;;;;7385226;19;20677;-79
2022/06/06 12:20:19;;;;;;;2.90;2.70;;;;;;;;;;7386988;19;20260;-79
2022/06/06 12:22:45;;;;;;;3.30;3.00;;;;;;;;;;7391237;19;20177;-79
2022/06/06 12:25:20;;;;;;;3.22;2.92;;;;;;;;;;7382276;19;20213;-79
2022/06/06 12:28:05;;;;;;;3.50;2.90;;;;;;;;;;7384250;19;20144;-79
2022/06/06 12:30:49;;;;;;;3.30;3.08;;;;;;;;;;7388379;19;20117;-80
2022/06/06 12:33:18;;;;;;;3.58;3.22;;;;;;;;;;7388790;19;20619;-79
2022/06/06 12:35:57;;;;;;;3.60;3.30;;;;;;;;;;7388181;19;20940;-79
2022/06/06 12:38:27;;;;;;;4.45;2.63;;;;;;;;;;7389731;19;20144;-79
2022/06/06 12:40:59;;;;;;;3.90;3.03;;;;;;;;;;7391498;19;20141;-79
2022/06/06 12:43:25;;;;;;;3.75;2.97;;;;;;;;;;7380155;19;20916;-79
2022/06/06 12:46:10;;;;;;;4.10;3.17;;;;;;;;;;7383400;19;20188;-79
2022/06/06 12:48:44;;;;;;;7.47;2.92;;;;;;;;;;7383315;19;20136;-79
2022/06/06 12:51:24;;;;;;;3.28;2.80;;;;;;;;;;7387517;19;20152;-79
2022/06/06 12:53:59;;;;;;;4.82;4.20;;;;;;;;;;7384052;19;20125;-79
2022/06/06 12:56:45;;;;;;;3.80;3.35;;;;;;;;;;7384655;19;20168;-79
2022/06/06 12:59:12;;;;;;;5.90;4.38;;;;;;;;;;7391194;19;20132;-79
2022/06/06 13:01:38;;;;;;;3.30;3.00;;;;;;;;;;7377379;19;23492;-79
2022/06/06 13:04:13;;;;;;;3.75;3.05;;;;;;;;;;7369040;19;20153;-80
2022/06/06 13:06:47;;;;;;;5.60;3.30;;;;;;;;;;7370911;19;20145;-79
2022/06/06 13:09:33;;;;;;;3.75;3.28;;;;;;;;;;7376545;19;20655;-79
2022/06/06 13:12:11;;;;;;;3.58;2.90;;;;;;;;;;7400943;19;20149;-79
2022/06/06 13:14:43;;;;;;;3.20;2.97;;;;;;;;;;7395409;19;20181;-79
2022/06/06 13:30:21;;;;;;;5.57;3.15;;;;;;;;;;7378661;19;20223;-80
2022/06/06 13:32:50;;;;;;;3.60;3.13;;;;;;;;;;7381515;19;20237;-80
2022/06/06 13:35:20;;;;;;;3.60;3.13;;;;;;;;;;7381995;19;20173;-79
2022/06/06 13:37:48;;;;;;;3.10;2.90;;;;;;;;;;7378305;19;20189;-79
2022/06/06 13:40:33;;;;;;;3.67;2.90;;;;;;;;;;7389243;19;20141;-80
2022/06/06 13:43:03;;;;;;;3.33;2.85;;;;;;;;;;7390123;19;20128;-79
2022/06/06 13:45:39;;;;;;;3.25;2.97;;;;;;;;;;7379509;19;20620;-80
2022/06/06 13:48:10;;;;;;;3.03;2.80;;;;;;;;;;7379170;19;20156;-79
2022/06/06 13:50:49;;;;;;;3.35;3.05;;;;;;;;;;7390567;19;20184;-79
2022/06/06 13:53:15;;;;;;;4.53;2.70;;;;;;;;;;7391643;19;20601;-80
2022/06/06 13:55:41;;;;;;;4.05;3.53;;;;;;;;;;7385673;19;20184;-80
2022/06/06 13:58:07;;;;;;;3.25;3.05;;;;;;;;;;7385193;19;20129;-80
2022/06/06 14:00:59;;;;;;;3.10;2.80;;;;;;;;;;7379341;19;20612;-80
2022/06/06 14:03:41;;;;;;;4.05;3.35;;;;;;;;;;7386554;19;20174;-80
2022/06/06 14:06:22;;;;;;;3.90;2.90;;;;;;;;;;7381610;19;20173;-80
2022/06/06 14:08:50;;;;;;;3.00;2.78;;;;;;;;;;7387698;19;20260;-80
2022/06/06 14:11:24;;;;;;;3.28;2.92;;;;;;;;;;7387119;19;20164;-80
2022/06/06 14:13:55;;;;;;;3.35;3.13;;;;;;;;;;7390401;19;20156;-80
2022/06/06 14:16:24;;;;;;;2.80;2.53;;;;;;;;;;7376691;19;20152;-80
2022/06/06 14:18:52;;;;;;;4.15;2.78;;;;;;;;;;7389286;19;20176;-81
2022/06/06 14:21:28;;;;;;;2.65;2.45;;;;;;;;;;7385483;19;20168;-80
2022/06/06 14:24:06;;;;;;;3.42;2.60;;;;;;;;;;7377515;19;20145;-81
2022/06/06 14:26:32;;;;;;;4.18;2.58;;;;;;;;;;7383261;19;20260;-80
2022/06/06 14:29:27;;;;;;;2.65;2.40;;;;;;;;;;7376889;19;20148;-80
2022/06/06 14:31:55;;;;;;;3.50;2.58;;;;;;;;;;7380297;19;20157;-81
2022/06/06 14:34:27;;;;;;;2.97;2.67;;;;;;;;;;7381849;19;20152;-80
2022/06/06 14:37:04;;;;;;;2.90;2.70;;;;;;;;;;7385312;19;20169;-80
2022/06/06 14:39:31;;;;;;;2.47;2.30;;;;;;;;;;7381625;19;21576;-80
2022/06/06 14:41:57;;;;;;;2.50;2.30;;;;;;;;;;7390437;19;20125;-81
2022/06/06 14:44:28;;;;;;;3.85;2.78;;;;;;;;;;7411173;19;20144;-80
2022/06/06 14:47:08;;;;;;;3.13;2.80;;;;;;;;;;7411180;19;20186;-80
2022/06/06 14:49:35;;;;;;;2.92;2.67;;;;;;;;;;7412465;19;20129;-80
2022/06/06 14:52:09;;;;;;;5.43;2.47;;;;;;;;;;7414179;19;20149;-80
2022/06/06 14:54:37;;;;;;;3.80;2.40;;;;;;;;;;7411726;19;20148;-80
2022/06/06 14:57:05;;;;;;;2.50;2.20;;;;;;;;;;7409463;19;20180;-80
2022/06/06 14:59:41;;;;;;;2.83;2.00;;;;;;;;;;7407047;19;20153;-80
2022/06/06 15:02:13;;;;;;;5.78;2.30;;;;;;;;;;7406313;19;20132;-80
2022/06/06 15:04:41;;;;;;;4.03;2.30;;;;;;;;;;7409099;19;20173;-80
2022/06/06 15:07:07;;;;;;;5.05;2.45;;;;;;;;;;7404130;19;20172;-80
2022/06/06 15:09:33;;;;;;;3.17;2.13;;;;;;;;;;7415371;19;20144;-81
2022/06/06 15:11:59;;;;;;;2.83;2.20;;;;;;;;;;7414626;19;20685;-80
2022/06/06 15:14:30;;;;;;;2.20;2.10;;;;;;;;;;7402999;19;20129;-80
2022/06/06 15:16:57;;;;;;;2.50;2.30;;;;;;;;;;7383423;19;20627;-80
2022/06/06 15:19:26;;;;;;;3.03;2.22;;;;;;;;;;7377141;19;20141;-80
2022/06/06 15:21:52;;;;;;;2.50;2.30;;;;;;;;;;7378182;19;20140;-80
2022/06/06 15:24:21;;;;;;;3.63;2.38;;;;;;;;;;7377850;19;20200;-80
2022/06/06 15:26:59;;;;;;;2.33;2.10;;;;;;;;;;7374482;19;20761;-81
2022/06/06 15:29:34;;;;;;;2.22;2.00;;;;;;;;;;7392644;19;20149;-80
2022/06/06 15:32:00;;;;;;;2.30;2.10;;;;;;;;;;7413052;19;20161;-80
2022/06/06 15:34:35;;;;;;;3.08;1.98;;;;;;;;;;7410100;19;20145;-80
2022/06/06 15:37:21;;;;;;;4.45;1.83;;;;;;;;;;7387854;19;20172;-81
2022/06/06 15:39:50;;;;;;;2.20;1.92;;;;;;;;;;7392977;19;20137;-80
2022/06/06 15:42:23;;;;;;;2.17;2.03;;;;;;;;;;7386222;19;20137;-80
2022/06/06 15:45:21;;;;;;;2.47;2.28;;;;;;;;;;7383619;19;20141;-80
2022/06/06 15:48:09;;;;;;;2.38;1.90;;;;;;;;;;7415823;19;20132;-81
2022/06/06 15:50:53;;;;;;;2.95;2.50;;;;;;;;;;7397700;19;20674;-81
2022/06/06 15:53:22;;;;;;;2.60;2.40;;;;;;;;;;7388655;19;20144;-81
2022/06/06 15:55:50;;;;;;;3.08;2.72;;;;;;;;;;7387112;19;20215;-81
2022/06/06 15:58:16;;;;;;;2.88;2.67;;;;;;;;;;7384249;19;20610;-80
2022/06/06 16:01:01;;;;;;;6.40;2.88;;;;;;;;;;7383037;19;20136;-80
2022/06/06 16:03:50;;;;;;;2.88;2.67;;;;;;;;;;7382236;19;20144;-81